createdAt,value
2023-05-18T00:00:02.758Z,66.00
2023-05-18T00:02:31.735Z,66.10
2023-05-18T00:05:02.452Z,66.01
2023-05-18T00:07:34.245Z,66.20
2023-05-18T00:10:01.735Z,66.21
2023-05-18T00:12:28.721Z,66.22
2023-05-18T00:14:57.958Z,66.39
2023-05-18T00:17:25.049Z,66.59
2023-05-18T00:19:51.923Z,67.24
2023-05-18T00:22:19.216Z,67.28
2023-05-18T00:24:46.990Z,67.45
2023-05-18T00:27:14.606Z,67.72
2023-05-18T00:29:41.295Z,67.71
2023-05-18T00:32:07.995Z,68.02
2023-05-18T00:34:37.530Z,68.09
2023-05-18T00:37:04.756Z,67.96
2023-05-18T00:39:31.462Z,68.31
2023-05-18T00:41:58.267Z,69.04
2023-05-18T00:44:25.089Z,69.24
2023-05-18T00:46:52.340Z,69.07
2023-05-18T00:49:19.728Z,69.33
2023-05-18T00:51:46.993Z,69.25
2023-05-18T00:54:14.796Z,69.48
2023-05-18T00:56:42.242Z,69.91
2023-05-18T00:59:12.617Z,70.57
2023-05-18T01:01:44.247Z,70.82
2023-05-18T01:04:14.358Z,70.49
2023-05-18T01:06:42.509Z,70.34
2023-05-18T01:09:12.240Z,69.71
2023-05-18T01:12:11.895Z,69.22
2023-05-18T01:14:47.261Z,69.06
2023-05-18T01:17:49.839Z,68.81
2023-05-18T01:20:25.530Z,68.98
2023-05-18T01:23:12.036Z,69.37
2023-05-18T01:25:48.739Z,69.47
2023-05-18T01:28:20.694Z,69.40
2023-05-18T01:30:48.630Z,69.58
2023-05-18T01:33:15.736Z,69.44
2023-05-18T01:35:48.002Z,69.44
2023-05-18T01:38:19.739Z,69.52
2023-05-18T01:40:52.628Z,69.20
2023-05-18T01:43:21.691Z,69.13
2023-05-18T01:45:56.530Z,69.23
2023-05-18T01:48:25.602Z,69.24
2023-05-18T01:50:58.058Z,69.07
2023-05-18T01:53:41.998Z,69.21
2023-05-18T01:56:10.659Z,69.24
2023-05-18T01:58:38.211Z,69.08
2023-05-18T02:01:05.279Z,69.01
2023-05-18T02:03:33.529Z,69.24
2023-05-18T02:06:00.525Z,69.18
2023-05-18T02:08:27.672Z,68.96
2023-05-18T02:10:54.770Z,69.16
2023-05-18T02:13:21.441Z,69.11
2023-05-18T02:15:48.309Z,68.95
2023-05-18T02:18:16.743Z,68.38
2023-05-18T02:20:43.530Z,68.04
2023-05-18T02:23:10.375Z,67.92
2023-05-18T02:25:37.320Z,67.47
2023-05-18T02:28:04.264Z,67.62
2023-05-18T02:30:33.499Z,67.60
2023-05-18T02:33:00.250Z,67.68
2023-05-18T02:35:27.288Z,67.81
2023-05-18T02:37:56.092Z,67.97
2023-05-18T02:40:24.047Z,68.20
2023-05-18T02:42:50.824Z,68.52
2023-05-18T02:45:17.527Z,68.79
2023-05-18T02:47:44.693Z,68.65
2023-05-18T02:50:12.116Z,68.70
2023-05-18T02:52:39.576Z,68.65
2023-05-18T02:55:06.572Z,68.73
2023-05-18T02:57:48.333Z,68.67
2023-05-18T03:00:19.649Z,68.67
2023-05-18T03:02:48.498Z,68.66
2023-05-18T03:05:16.986Z,68.61
2023-05-18T03:07:50.759Z,68.68
2023-05-18T03:10:19.856Z,68.54
2023-05-18T03:12:47.822Z,68.55
2023-05-18T03:15:16.464Z,68.37
2023-05-18T03:17:43.404Z,67.96
2023-05-18T03:20:21.981Z,68.19
2023-05-18T03:22:48.924Z,68.33
2023-05-18T03:25:16.498Z,68.15
2023-05-18T03:27:43.254Z,68.08
2023-05-18T03:30:10.892Z,68.17
2023-05-18T03:32:38.410Z,68.20
2023-05-18T03:35:06.064Z,68.54
2023-05-18T03:37:32.839Z,68.75
2023-05-18T03:40:08.722Z,68.71
2023-05-18T03:42:35.557Z,68.69
2023-05-18T03:45:02.955Z,68.73
2023-05-18T03:47:30.060Z,68.67
2023-05-18T03:49:56.882Z,68.62
2023-05-18T03:52:24.187Z,68.84
2023-05-18T03:54:52.084Z,68.84
2023-05-18T03:57:19.281Z,68.94
2023-05-18T03:59:46.177Z,69.00
2023-05-18T04:02:13.294Z,69.13
2023-05-18T04:04:46.006Z,69.00
2023-05-18T04:07:16.740Z,68.91
2023-05-18T04:09:44.238Z,68.90
2023-05-18T04:12:11.118Z,68.69
2023-05-18T04:14:37.961Z,68.59
2023-05-18T04:17:05.966Z,68.62
2023-05-18T04:19:37.147Z,68.54
2023-05-18T04:22:05.023Z,68.56
2023-05-18T04:24:33.130Z,68.57
2023-05-18T04:27:04.345Z,68.73
2023-05-18T04:29:31.549Z,68.80
2023-05-18T04:32:02.409Z,68.61
2023-05-18T04:34:31.491Z,68.39
2023-05-18T04:36:59.835Z,68.09
2023-05-18T04:39:27.604Z,67.96
2023-05-18T04:42:00.857Z,67.76
2023-05-18T04:44:29.221Z,67.46
2023-05-18T04:46:59.624Z,67.22
2023-05-18T04:49:28.330Z,67.13
2023-05-18T04:51:56.516Z,66.93
2023-05-18T04:54:24.452Z,66.73
2023-05-18T04:56:52.757Z,66.67
2023-05-18T04:59:20.202Z,66.64
2023-05-18T05:01:47.238Z,66.74
2023-05-18T05:04:14.355Z,66.91
2023-05-18T05:06:41.474Z,67.27
2023-05-18T05:09:08.406Z,67.35
2023-05-18T05:11:35.548Z,67.32
2023-05-18T05:14:03.226Z,67.37
2023-05-18T05:16:30.316Z,67.41
2023-05-18T05:18:57.318Z,67.39
2023-05-18T05:21:24.246Z,67.40
2023-05-18T05:23:51.771Z,67.29
2023-05-18T05:26:19.848Z,67.12
2023-05-18T05:28:46.552Z,67.22
2023-05-18T05:31:14.027Z,67.14
2023-05-18T05:33:41.573Z,67.31
2023-05-18T05:36:08.884Z,67.48
2023-05-18T05:38:35.730Z,67.43
2023-05-18T05:41:03.309Z,67.65
2023-05-18T05:43:30.350Z,68.36
2023-05-18T05:45:57.050Z,68.63
2023-05-18T05:48:24.444Z,68.40
2023-05-18T05:50:51.494Z,68.11
2023-05-18T05:53:19.951Z,67.68
2023-05-18T05:55:48.256Z,67.62
2023-05-18T05:58:16.770Z,66.68
2023-05-18T06:00:48.716Z,66.34
2023-05-18T06:03:15.629Z,66.18
2023-05-18T06:05:44.942Z,66.07
2023-05-18T06:08:13.234Z,66.19
2023-05-18T06:10:41.435Z,66.31
2023-05-18T06:13:08.868Z,66.34
2023-05-18T06:15:42.262Z,66.10
2023-05-18T06:18:09.952Z,65.63
2023-05-18T06:20:39.180Z,64.83
2023-05-18T06:23:06.122Z,64.06
2023-05-18T06:25:44.390Z,63.03
2023-05-18T06:28:34.066Z,60.75
2023-05-18T06:31:29.533Z,57.61
2023-05-18T06:34:02.551Z,57.92
2023-05-18T06:36:29.419Z,57.65
2023-05-18T06:38:57.149Z,56.46
2023-05-18T06:41:23.834Z,56.51
2023-05-18T06:43:50.957Z,56.32
2023-05-18T06:46:24.942Z,53.68
2023-05-18T06:48:57.978Z,54.07
2023-05-18T06:51:25.086Z,52.53
2023-05-18T06:53:52.243Z,52.02
2023-05-18T06:56:19.512Z,51.43
2023-05-18T06:58:47.019Z,50.04
2023-05-18T07:01:14.481Z,49.01
2023-05-18T07:03:41.437Z,48.31
2023-05-18T07:06:08.298Z,48.52
2023-05-18T07:08:37.086Z,49.01
2023-05-18T07:11:04.598Z,48.44
2023-05-18T07:13:31.551Z,47.76
2023-05-18T07:15:58.592Z,47.40
2023-05-18T07:18:26.689Z,47.89
2023-05-18T07:20:53.627Z,48.04
2023-05-18T07:23:20.326Z,47.29
2023-05-18T07:25:47.313Z,46.91
2023-05-18T07:28:14.256Z,46.62
2023-05-18T07:30:41.408Z,47.20
2023-05-18T07:33:08.152Z,46.11
2023-05-18T07:35:35.131Z,46.26
2023-05-18T07:38:01.870Z,46.12
2023-05-18T07:40:28.797Z,46.54
2023-05-18T07:42:55.734Z,45.78
2023-05-18T07:45:23.932Z,45.57
2023-05-18T07:47:51.120Z,45.26
2023-05-18T07:50:18.119Z,45.30
2023-05-18T07:52:44.763Z,44.82
2023-05-18T07:55:11.510Z,44.12
2023-05-18T07:57:38.281Z,44.97
2023-05-18T08:00:06.690Z,44.99
2023-05-18T08:02:40.029Z,43.63
2023-05-18T08:05:07.588Z,44.13
2023-05-18T08:07:34.311Z,43.80
2023-05-18T08:10:01.265Z,43.96
2023-05-18T08:12:30.076Z,44.28
2023-05-18T08:14:57.208Z,43.63
2023-05-18T08:17:24.166Z,43.80
2023-05-18T08:19:54.059Z,43.70
2023-05-18T08:22:21.279Z,44.06
2023-05-18T08:24:48.326Z,43.38
2023-05-18T08:27:15.117Z,43.30
2023-05-18T08:29:41.806Z,43.14
2023-05-18T08:32:08.838Z,42.86
2023-05-18T08:34:36.135Z,43.02
2023-05-18T08:37:03.210Z,42.69
2023-05-18T08:39:32.509Z,42.45
2023-05-18T08:42:07.713Z,42.93
2023-05-18T08:44:40.435Z,43.40
2023-05-18T08:47:11.465Z,42.32
2023-05-18T08:49:41.220Z,41.49
2023-05-18T08:52:09.303Z,42.02
2023-05-18T08:54:37.789Z,41.99
2023-05-18T08:57:12.280Z,41.32
2023-05-18T08:59:43.493Z,41.84
2023-05-18T09:02:10.624Z,42.24
2023-05-18T09:04:38.530Z,42.18
2023-05-18T09:07:07.440Z,41.61
2023-05-18T09:09:35.830Z,40.83
2023-05-18T09:12:03.284Z,41.07
2023-05-18T09:14:32.556Z,41.30
2023-05-18T09:16:59.285Z,40.69
2023-05-18T09:19:26.468Z,41.31
2023-05-18T09:21:53.476Z,41.32
2023-05-18T09:24:22.936Z,41.60
2023-05-18T09:26:51.507Z,41.78
2023-05-18T09:29:21.019Z,41.89
2023-05-18T09:31:49.202Z,41.65
2023-05-18T09:34:16.650Z,41.82
2023-05-18T09:36:49.571Z,41.02
2023-05-18T09:39:16.263Z,40.63
2023-05-18T09:41:43.062Z,40.88
2023-05-18T09:44:12.605Z,41.04
2023-05-18T09:46:40.601Z,41.34
2023-05-18T09:49:08.383Z,41.54
2023-05-18T09:51:39.182Z,42.21
2023-05-18T09:54:08.634Z,42.04
2023-05-18T09:56:37.764Z,41.86
2023-05-18T09:59:16.022Z,42.10
2023-05-18T10:02:05.881Z,43.08
2023-05-18T10:04:41.388Z,42.46
2023-05-18T10:07:16.502Z,43.26
2023-05-18T10:09:45.356Z,43.04
2023-05-18T10:12:18.736Z,42.63
2023-05-18T10:14:46.551Z,42.38
2023-05-18T10:17:16.646Z,42.62
2023-05-18T10:19:45.564Z,43.78
2023-05-18T10:22:16.591Z,43.69
2023-05-18T10:24:50.225Z,43.55
2023-05-18T10:27:20.629Z,43.42
2023-05-18T10:29:50.030Z,43.38
2023-05-18T10:32:17.315Z,43.34
2023-05-18T10:34:45.411Z,43.12
2023-05-18T10:37:14.673Z,43.05
2023-05-18T10:39:45.792Z,42.64
2023-05-18T10:42:16.191Z,43.21
2023-05-18T10:44:44.976Z,43.14
2023-05-18T10:47:12.361Z,43.93
2023-05-18T10:49:42.672Z,43.18
2023-05-18T10:52:11.928Z,43.60
2023-05-18T10:54:41.027Z,43.13
2023-05-18T10:57:13.527Z,43.42
2023-05-18T10:59:45.457Z,42.71
2023-05-18T11:02:16.706Z,42.30
2023-05-18T11:04:44.024Z,42.04
2023-05-18T11:07:16.361Z,42.01
2023-05-18T11:09:44.805Z,40.45
2023-05-18T11:12:17.995Z,40.53
2023-05-18T11:14:52.538Z,41.80
2023-05-18T11:17:26.850Z,41.58
2023-05-18T11:20:06.507Z,42.05
2023-05-18T11:22:58.749Z,41.01
2023-05-18T11:25:28.551Z,41.37
2023-05-18T11:28:01.982Z,41.49
2023-05-18T11:30:34.885Z,41.22
2023-05-18T11:33:15.399Z,41.30
2023-05-18T11:36:07.072Z,40.83
2023-05-18T11:38:52.982Z,41.27
2023-05-18T11:41:47.227Z,40.89
2023-05-18T11:44:18.604Z,40.64
2023-05-18T11:47:29.691Z,40.54
2023-05-18T11:49:57.731Z,40.79
2023-05-18T11:52:25.601Z,41.19
2023-05-18T11:54:57.014Z,41.09
2023-05-18T11:57:39.513Z,40.62
2023-05-18T12:00:12.140Z,40.99
2023-05-18T12:02:46.899Z,41.09
2023-05-18T12:05:15.513Z,40.80
2023-05-18T12:07:43.009Z,39.99
2023-05-18T12:10:15.075Z,40.48
2023-05-18T12:12:42.415Z,41.00
2023-05-18T12:15:11.818Z,40.53
2023-05-18T12:17:43.058Z,40.60
2023-05-18T12:20:39.031Z,40.30
2023-05-18T12:23:05.781Z,39.34
2023-05-18T12:25:33.024Z,39.02
2023-05-18T12:28:02.232Z,38.88
2023-05-18T12:30:35.857Z,38.37
2023-05-18T12:33:04.132Z,38.42
2023-05-18T12:35:32.360Z,38.59
2023-05-18T12:38:00.901Z,38.99
2023-05-18T12:40:55.549Z,39.05
2023-05-18T12:43:27.110Z,39.70
2023-05-18T12:45:53.962Z,39.72
2023-05-18T12:48:26.862Z,40.01
2023-05-18T12:50:54.014Z,40.42
2023-05-18T12:53:20.960Z,40.59
2023-05-18T12:55:59.857Z,40.13
2023-05-18T12:58:26.743Z,40.87
2023-05-18T13:00:54.019Z,40.52
2023-05-18T13:03:22.422Z,41.07
2023-05-18T13:06:08.339Z,41.58
2023-05-18T13:08:36.626Z,41.73
2023-05-18T13:11:14.318Z,41.35
2023-05-18T13:14:20.729Z,41.31
2023-05-18T13:16:51.994Z,41.54
2023-05-18T13:19:20.022Z,41.79
2023-05-18T13:21:55.683Z,41.24
2023-05-18T13:24:22.386Z,41.36
2023-05-18T13:26:49.186Z,41.31
2023-05-18T13:29:15.918Z,41.78
2023-05-18T13:31:42.555Z,41.13
2023-05-18T13:34:09.202Z,40.75
2023-05-18T13:36:36.702Z,40.91
2023-05-18T13:39:07.672Z,40.72
2023-05-18T13:41:36.518Z,40.48
2023-05-18T13:44:03.789Z,39.97
2023-05-18T13:46:32.528Z,38.42
2023-05-18T13:48:59.783Z,38.85
2023-05-18T13:51:26.626Z,39.09
2023-05-18T13:53:53.358Z,39.18
2023-05-18T13:56:20.411Z,39.35
2023-05-18T13:58:47.481Z,39.62
2023-05-18T14:01:14.296Z,39.14
2023-05-18T14:03:41.343Z,37.35
2023-05-18T14:06:08.260Z,38.52
2023-05-18T14:08:35.139Z,39.43
2023-05-18T14:11:01.778Z,39.67
2023-05-18T14:13:28.530Z,39.44
2023-05-18T14:15:55.206Z,39.45
2023-05-18T14:18:22.208Z,39.39
2023-05-18T14:20:49.280Z,39.70
2023-05-18T14:23:16.055Z,39.75
2023-05-18T14:25:43.987Z,39.38
2023-05-18T14:28:10.702Z,38.80
2023-05-18T14:30:37.344Z,39.03
2023-05-18T14:33:04.326Z,38.53
2023-05-18T14:35:31.207Z,37.84
2023-05-18T14:37:58.094Z,38.29
2023-05-18T14:40:24.796Z,38.63
2023-05-18T14:42:53.690Z,38.22
2023-05-18T14:45:21.217Z,37.89
2023-05-18T14:47:48.565Z,38.04
2023-05-18T14:50:15.320Z,37.79
2023-05-18T14:52:42.262Z,37.71
2023-05-18T14:55:09.546Z,37.20
2023-05-18T14:57:36.239Z,37.47
2023-05-18T15:00:03.751Z,37.24
2023-05-18T15:02:30.635Z,37.29
2023-05-18T15:04:57.756Z,36.29
2023-05-18T15:07:24.528Z,36.51
2023-05-18T15:09:51.409Z,37.65
2023-05-18T15:12:19.880Z,37.49
2023-05-18T15:14:46.513Z,37.68
2023-05-18T15:17:15.025Z,37.98
2023-05-18T15:19:41.789Z,37.41
2023-05-18T15:22:08.557Z,37.63
2023-05-18T15:24:35.419Z,38.20
2023-05-18T15:27:03.607Z,38.45
2023-05-18T15:29:30.285Z,38.48
2023-05-18T15:31:57.143Z,38.81
2023-05-18T15:34:23.930Z,39.22
2023-05-18T15:36:50.879Z,39.51
2023-05-18T15:39:17.557Z,39.94
2023-05-18T15:41:44.458Z,40.31
2023-05-18T15:44:11.706Z,40.40
2023-05-18T15:46:38.412Z,40.40
2023-05-18T15:49:05.131Z,40.34
2023-05-18T15:51:32.083Z,40.49
2023-05-18T15:53:58.798Z,40.89
2023-05-18T15:56:25.869Z,41.08
2023-05-18T15:58:52.781Z,41.09
2023-05-18T16:01:19.510Z,41.21
2023-05-18T16:03:46.469Z,41.26
2023-05-18T16:06:14.798Z,41.58
2023-05-18T16:08:42.231Z,41.60
2023-05-18T16:11:09.034Z,41.53
2023-05-18T16:13:35.827Z,41.83
2023-05-18T16:16:03.531Z,42.17
2023-05-18T16:18:30.520Z,41.86
2023-05-18T16:20:57.292Z,41.75
2023-05-18T16:23:24.035Z,42.06
2023-05-18T16:25:50.840Z,42.11
2023-05-18T16:28:17.766Z,42.22
2023-05-18T16:30:44.594Z,42.33
2023-05-18T16:33:11.413Z,42.40
2023-05-18T16:35:39.240Z,42.51
2023-05-18T16:38:05.987Z,42.64
2023-05-18T16:40:32.909Z,42.84
2023-05-18T16:43:00.175Z,42.91
2023-05-18T16:45:27.945Z,43.03
2023-05-18T16:47:54.789Z,42.94
2023-05-18T16:50:21.460Z,43.18
2023-05-18T16:52:48.278Z,43.25
2023-05-18T16:55:15.076Z,43.53
2023-05-18T16:57:43.331Z,43.70
2023-05-18T17:00:11.596Z,43.72
2023-05-18T17:02:39.398Z,44.11
2023-05-18T17:05:08.495Z,44.12
2023-05-18T17:07:36.481Z,43.96
2023-05-18T17:10:04.580Z,44.12
2023-05-18T17:12:36.852Z,44.11
2023-05-18T17:15:03.901Z,44.37
2023-05-18T17:17:30.617Z,44.52
2023-05-18T17:19:57.513Z,44.60
2023-05-18T17:22:24.432Z,45.03
2023-05-18T17:24:51.178Z,44.95
2023-05-18T17:27:19.338Z,45.10
2023-05-18T17:29:46.232Z,44.96
2023-05-18T17:32:13.038Z,45.13
2023-05-18T17:34:40.436Z,45.59
2023-05-18T17:37:07.347Z,45.69
2023-05-18T17:39:35.267Z,45.81
2023-05-18T17:42:03.587Z,45.89
2023-05-18T17:44:31.508Z,46.06
2023-05-18T17:46:59.972Z,45.85
2023-05-18T17:49:27.828Z,45.92
2023-05-18T17:51:54.594Z,46.18
2023-05-18T17:54:22.651Z,46.18
2023-05-18T17:56:49.990Z,46.30
2023-05-18T17:59:16.765Z,46.49
2023-05-18T18:01:43.594Z,46.45
2023-05-18T18:04:10.379Z,46.62
2023-05-18T18:06:37.207Z,46.71
2023-05-18T18:09:05.131Z,46.97
2023-05-18T18:11:32.671Z,47.36
2023-05-18T18:13:59.985Z,47.74
2023-05-18T18:16:26.866Z,48.02
2023-05-18T18:18:53.929Z,48.49
2023-05-18T18:21:21.307Z,48.84
2023-05-18T18:23:48.315Z,48.81
2023-05-18T18:26:15.405Z,49.11
2023-05-18T18:28:42.272Z,49.28
2023-05-18T18:31:09.318Z,49.43
2023-05-18T18:33:36.098Z,49.62
2023-05-18T18:36:05.795Z,49.69
2023-05-18T18:38:34.013Z,49.73
2023-05-18T18:41:05.102Z,50.16
2023-05-18T18:43:31.937Z,50.15
2023-05-18T18:45:59.286Z,50.28
2023-05-18T18:48:26.431Z,50.26
2023-05-18T18:50:53.743Z,50.57
2023-05-18T18:53:20.722Z,50.64
2023-05-18T18:55:47.429Z,51.09
2023-05-18T18:58:14.325Z,51.51
2023-05-18T19:00:41.361Z,52.20
2023-05-18T19:03:14.600Z,52.68
2023-05-18T19:05:41.829Z,53.04
2023-05-18T19:08:08.547Z,52.97
2023-05-18T19:10:35.475Z,53.50
2023-05-18T19:13:05.852Z,53.80
2023-05-18T19:15:34.211Z,54.09
2023-05-18T19:18:01.332Z,54.25
2023-05-18T19:20:28.026Z,54.56
2023-05-18T19:22:55.059Z,54.79
2023-05-18T19:25:24.804Z,54.97
2023-05-18T19:27:52.854Z,55.04
2023-05-18T19:30:23.656Z,55.39
2023-05-18T19:32:52.005Z,55.61
2023-05-18T19:35:20.679Z,55.62
2023-05-18T19:37:48.029Z,55.85
2023-05-18T19:40:15.287Z,56.00
2023-05-18T19:42:42.108Z,56.22
2023-05-18T19:45:09.132Z,56.58
2023-05-18T19:47:36.660Z,56.51
2023-05-18T19:50:04.645Z,56.70
2023-05-18T19:52:33.722Z,56.98
2023-05-18T19:55:00.591Z,56.91
2023-05-18T19:57:27.371Z,56.96
2023-05-18T19:59:54.090Z,57.31
2023-05-18T20:02:20.809Z,57.47
2023-05-18T20:04:48.565Z,57.37
2023-05-18T20:07:15.318Z,57.32
2023-05-18T20:09:42.011Z,57.14
2023-05-18T20:12:08.760Z,57.26
2023-05-18T20:14:36.761Z,57.22
2023-05-18T20:17:04.398Z,57.55
2023-05-18T20:19:33.079Z,57.42
2023-05-18T20:22:00.249Z,57.76
2023-05-18T20:24:27.080Z,57.82
2023-05-18T20:26:53.802Z,57.90
2023-05-18T20:29:20.494Z,57.81
2023-05-18T20:31:47.274Z,57.87
2023-05-18T20:34:13.981Z,58.08
2023-05-18T20:36:40.596Z,58.03
2023-05-18T20:39:07.632Z,58.11
2023-05-18T20:41:34.421Z,57.94
2023-05-18T20:44:02.161Z,58.06
2023-05-18T20:46:31.157Z,58.07
2023-05-18T20:48:58.012Z,58.41
2023-05-18T20:51:24.817Z,58.71
2023-05-18T20:53:51.802Z,58.61
2023-05-18T20:56:18.944Z,58.55
2023-05-18T20:58:48.732Z,58.65
2023-05-18T21:01:18.924Z,58.93
2023-05-18T21:03:45.952Z,59.04
2023-05-18T21:06:13.252Z,58.99
2023-05-18T21:08:40.933Z,59.04
2023-05-18T21:11:07.594Z,59.07
2023-05-18T21:13:36.810Z,59.12
2023-05-18T21:16:08.565Z,59.36
2023-05-18T21:18:36.020Z,59.46
2023-05-18T21:21:03.841Z,59.32
2023-05-18T21:23:30.805Z,59.42
2023-05-18T21:25:57.936Z,59.53
2023-05-18T21:28:25.144Z,59.61
2023-05-18T21:30:52.534Z,59.63
2023-05-18T21:33:19.646Z,59.58
2023-05-18T21:35:46.573Z,59.82
2023-05-18T21:38:13.390Z,59.80
2023-05-18T21:40:43.486Z,59.96
2023-05-18T21:43:10.828Z,59.89
2023-05-18T21:45:37.780Z,60.10
2023-05-18T21:48:04.832Z,59.97
2023-05-18T21:50:35.137Z,60.21
2023-05-18T21:53:03.421Z,59.99
2023-05-18T21:55:33.811Z,60.09
2023-05-18T21:58:00.776Z,60.29
2023-05-18T22:00:28.551Z,60.63
2023-05-18T22:02:56.179Z,60.96
2023-05-18T22:05:23.025Z,61.34
2023-05-18T22:07:49.865Z,61.42
2023-05-18T22:10:18.367Z,61.25
2023-05-18T22:12:45.072Z,61.48
2023-05-18T22:15:12.220Z,61.54
2023-05-18T22:17:39.565Z,61.69
2023-05-18T22:20:09.082Z,61.28
2023-05-18T22:22:35.831Z,61.63
2023-05-18T22:25:02.546Z,61.25
2023-05-18T22:27:29.302Z,61.39
2023-05-18T22:29:56.239Z,60.79
2023-05-18T22:32:23.228Z,60.35
2023-05-18T22:34:50.155Z,60.00
2023-05-18T22:37:16.760Z,59.47
2023-05-18T22:39:43.774Z,58.63
2023-05-18T22:42:10.403Z,58.25
2023-05-18T22:44:37.120Z,57.86
2023-05-18T22:47:04.028Z,57.68
2023-05-18T22:49:31.152Z,57.00
2023-05-18T22:51:57.915Z,56.66
2023-05-18T22:54:24.580Z,56.36
2023-05-18T22:56:51.344Z,56.26
2023-05-18T22:59:18.015Z,56.00
2023-05-18T23:01:44.825Z,55.87
2023-05-18T23:04:13.528Z,55.50
2023-05-18T23:06:41.502Z,55.42
2023-05-18T23:09:08.187Z,55.42
2023-05-18T23:11:35.182Z,55.34
2023-05-18T23:14:02.884Z,55.35
2023-05-18T23:16:29.817Z,55.34
2023-05-18T23:18:58.858Z,55.27
2023-05-18T23:21:25.849Z,55.28
2023-05-18T23:23:52.694Z,55.09
2023-05-18T23:26:19.355Z,55.22
2023-05-18T23:28:46.208Z,55.09
2023-05-18T23:31:12.905Z,55.05
2023-05-18T23:33:40.327Z,54.80
2023-05-18T23:36:08.211Z,54.68
2023-05-18T23:38:38.115Z,54.52
2023-05-18T23:41:09.193Z,54.33
2023-05-18T23:43:36.126Z,54.24
2023-05-18T23:46:05.134Z,54.18
2023-05-18T23:48:32.512Z,54.32
2023-05-18T23:51:02.948Z,54.22
2023-05-18T23:53:33.123Z,53.99
2023-05-18T23:56:00.375Z,53.76
2023-05-18T23:58:31.720Z,53.61
